sensor_id;sensor_type;location;lat;lon;timestamp;P1;durP1;ratioP1;P2;durP2;ratioP2
52494;SDS011;38405;53.212;5.660;2023-07-29T00:01:35;8.43;;;4.70;;
52494;SDS011;38405;53.212;5.660;2023-07-29T00:04:01;11.75;;;4.95;;
52494;SDS011;38405;53.212;5.660;2023-07-29T00:06:27;12.43;;;4.70;;
52494;SDS011;38405;53.212;5.660;2023-07-29T00:08:53;8.65;;;4.57;;
52494;SDS011;38405;53.212;5.660;2023-07-29T00:11:18;10.95;;;4.57;;
52494;SDS011;38405;53.212;5.660;2023-07-29T00:13:44;10.30;;;5.00;;
52494;SDS011;38405;53.212;5.660;2023-07-29T00:16:10;8.73;;;4.90;;
52494;SDS011;38405;53.212;5.660;2023-07-29T00:18:35;9.23;;;4.72;;
52494;SDS011;38405;53.212;5.660;2023-07-29T00:21:01;7.28;;;4.68;;
52494;SDS011;38405;53.212;5.660;2023-07-29T00:23:27;10.45;;;4.78;;
52494;SDS011;38405;53.212;5.660;2023-07-29T00:25:54;5.13;;;3.88;;
52494;SDS011;38405;53.212;5.660;2023-07-29T00:28:19;11.68;;;4.43;;
52494;SDS011;38405;53.212;5.660;2023-07-29T00:30:45;6.53;;;4.18;;
52494;SDS011;38405;53.212;5.660;2023-07-29T00:33:11;7.95;;;4.65;;
52494;SDS011;38405;53.212;5.660;2023-07-29T00:35:36;14.80;;;4.28;;
52494;SDS011;38405;53.212;5.660;2023-07-29T00:38:02;11.10;;;3.97;;
52494;SDS011;38405;53.212;5.660;2023-07-29T00:40:28;7.07;;;4.13;;
52494;SDS011;38405;53.212;5.660;2023-07-29T00:42:55;9.88;;;4.80;;
52494;SDS011;38405;53.212;5.660;2023-07-29T00:45:20;11.60;;;4.13;;
52494;SDS011;38405;53.212;5.660;2023-07-29T00:47:46;16.50;;;4.60;;
52494;SDS011;38405;53.212;5.660;2023-07-29T00:50:13;11.68;;;4.63;;
52494;SDS011;38405;53.212;5.660;2023-07-29T00:52:40;8.70;;;4.55;;
52494;SDS011;38405;53.212;5.660;2023-07-29T00:55:06;6.45;;;4.70;;
52494;SDS011;38405;53.212;5.660;2023-07-29T00:57:32;11.32;;;5.07;;
52494;SDS011;38405;53.212;5.660;2023-07-29T00:59:58;8.20;;;4.47;;
52494;SDS011;38405;53.212;5.660;2023-07-29T01:02:25;9.57;;;4.28;;
52494;SDS011;38405;53.212;5.660;2023-07-29T01:04:53;10.93;;;4.53;;
52494;SDS011;38405;53.212;5.660;2023-07-29T01:07:27;10.18;;;4.35;;
52494;SDS011;38405;53.212;5.660;2023-07-29T01:10:05;7.90;;;4.35;;
52494;SDS011;38405;53.212;5.660;2023-07-29T01:15:31;8.88;;;4.90;;
52494;SDS011;38405;53.212;5.660;2023-07-29T01:18:05;7.85;;;4.47;;
52494;SDS011;38405;53.212;5.660;2023-07-29T01:20:36;10.25;;;4.70;;
52494;SDS011;38405;53.212;5.660;2023-07-29T01:23:05;11.32;;;5.35;;
52494;SDS011;38405;53.212;5.660;2023-07-29T01:25:30;10.27;;;5.05;;
52494;SDS011;38405;53.212;5.660;2023-07-29T01:27:59;8.35;;;4.72;;
52494;SDS011;38405;53.212;5.660;2023-07-29T01:30:33;10.68;;;5.80;;
52494;SDS011;38405;53.212;5.660;2023-07-29T01:33:16;10.55;;;5.85;;
52494;SDS011;38405;53.212;5.660;2023-07-29T01:35:49;10.95;;;5.13;;
52494;SDS011;38405;53.212;5.660;2023-07-29T01:38:20;6.93;;;5.45;;
52494;SDS011;38405;53.212;5.660;2023-07-29T01:41:13;12.38;;;6.10;;
52494;SDS011;38405;53.212;5.660;2023-07-29T01:43:41;10.95;;;5.93;;
52494;SDS011;38405;53.212;5.660;2023-07-29T01:46:11;13.20;;;5.65;;
52494;SDS011;38405;53.212;5.660;2023-07-29T01:48:38;12.02;;;5.93;;
52494;SDS011;38405;53.212;5.660;2023-07-29T01:51:04;12.88;;;5.82;;
52494;SDS011;38405;53.212;5.660;2023-07-29T01:53:30;8.57;;;5.90;;
52494;SDS011;38405;53.212;5.660;2023-07-29T01:55:56;8.98;;;5.45;;
52494;SDS011;38405;53.212;5.660;2023-07-29T01:58:22;9.95;;;5.75;;
52494;SDS011;38405;53.212;5.660;2023-07-29T02:00:48;12.50;;;5.93;;
52494;SDS011;38405;53.212;5.660;2023-07-29T02:03:13;10.45;;;5.70;;
52494;SDS011;38405;53.212;5.660;2023-07-29T02:05:39;10.52;;;5.13;;
52494;SDS011;38405;53.212;5.660;2023-07-29T02:08:05;10.63;;;4.90;;
52494;SDS011;38405;53.212;5.660;2023-07-29T02:10:31;13.75;;;5.32;;
52494;SDS011;38405;53.212;5.660;2023-07-29T02:12:56;7.90;;;5.10;;
52494;SDS011;38405;53.212;5.660;2023-07-29T02:15:22;9.80;;;5.05;;
52494;SDS011;38405;53.212;5.660;2023-07-29T02:17:49;12.23;;;5.28;;
52494;SDS011;38405;53.212;5.660;2023-07-29T02:20:16;13.57;;;5.20;;
52494;SDS011;38405;53.212;5.660;2023-07-29T02:22:41;9.07;;;5.07;;
52494;SDS011;38405;53.212;5.660;2023-07-29T02:25:07;8.57;;;4.53;;
52494;SDS011;38405;53.212;5.660;2023-07-29T02:27:33;9.57;;;5.05;;
52494;SDS011;38405;53.212;5.660;2023-07-29T02:29:59;9.85;;;4.75;;
52494;SDS011;38405;53.212;5.660;2023-07-29T02:32:24;12.20;;;5.10;;
52494;SDS011;38405;53.212;5.660;2023-07-29T02:34:50;7.07;;;4.60;;
52494;SDS011;38405;53.212;5.660;2023-07-29T02:37:16;13.63;;;4.80;;
52494;SDS011;38405;53.212;5.660;2023-07-29T02:39:42;10.40;;;4.97;;
52494;SDS011;38405;53.212;5.660;2023-07-29T02:42:07;11.00;;;5.60;;
52494;SDS011;38405;53.212;5.660;2023-07-29T02:44:33;8.30;;;4.13;;
52494;SDS011;38405;53.212;5.660;2023-07-29T02:46:59;7.75;;;4.03;;
52494;SDS011;38405;53.212;5.660;2023-07-29T02:49:24;7.65;;;3.97;;
52494;SDS011;38405;53.212;5.660;2023-07-29T02:51:50;6.85;;;3.58;;
52494;SDS011;38405;53.212;5.660;2023-07-29T02:54:16;11.07;;;3.80;;
52494;SDS011;38405;53.212;5.660;2023-07-29T02:56:41;9.07;;;3.65;;
52494;SDS011;38405;53.212;5.660;2023-07-29T02:59:07;8.57;;;3.67;;
52494;SDS011;38405;53.212;5.660;2023-07-29T03:01:33;11.00;;;3.55;;
52494;SDS011;38405;53.212;5.660;2023-07-29T03:03:59;9.90;;;3.70;;
52494;SDS011;38405;53.212;5.660;2023-07-29T03:06:24;12.98;;;3.67;;
52494;SDS011;38405;53.212;5.660;2023-07-29T03:08:50;10.18;;;3.45;;
52494;SDS011;38405;53.212;5.660;2023-07-29T03:11:16;8.23;;;3.67;;
52494;SDS011;38405;53.212;5.660;2023-07-29T03:13:42;6.95;;;3.67;;
52494;SDS011;38405;53.212;5.660;2023-07-29T03:16:15;8.73;;;3.70;;
52494;SDS011;38405;53.212;5.660;2023-07-29T03:18:42;9.32;;;3.35;;
52494;SDS011;38405;53.212;5.660;2023-07-29T03:21:09;9.77;;;3.67;;
52494;SDS011;38405;53.212;5.660;2023-07-29T03:23:35;9.13;;;3.50;;
52494;SDS011;38405;53.212;5.660;2023-07-29T03:26:02;7.50;;;3.30;;
52494;SDS011;38405;53.212;5.660;2023-07-29T03:28:35;12.18;;;3.30;;
52494;SDS011;38405;53.212;5.660;2023-07-29T03:31:02;9.20;;;3.47;;
52494;SDS011;38405;53.212;5.660;2023-07-29T03:33:28;7.35;;;3.33;;
52494;SDS011;38405;53.212;5.660;2023-07-29T03:35:54;14.20;;;4.15;;
52494;SDS011;38405;53.212;5.660;2023-07-29T03:38:19;8.00;;;3.70;;
52494;SDS011;38405;53.212;5.660;2023-07-29T03:40:45;11.40;;;3.00;;
52494;SDS011;38405;53.212;5.660;2023-07-29T03:43:11;9.85;;;3.05;;
52494;SDS011;38405;53.212;5.660;2023-07-29T03:45:37;9.50;;;3.45;;
52494;SDS011;38405;53.212;5.660;2023-07-29T03:48:04;9.02;;;3.10;;
52494;SDS011;38405;53.212;5.660;2023-07-29T03:50:32;11.05;;;2.97;;
52494;SDS011;38405;53.212;5.660;2023-07-29T03:52:59;8.43;;;3.05;;
52494;SDS011;38405;53.212;5.660;2023-07-29T03:55:25;11.13;;;3.15;;
52494;SDS011;38405;53.212;5.660;2023-07-29T03:57:50;8.77;;;2.80;;
52494;SDS011;38405;53.212;5.660;2023-07-29T04:00:16;6.18;;;2.90;;
52494;SDS011;38405;53.212;5.660;2023-07-29T04:02:42;8.27;;;2.63;;
52494;SDS011;38405;53.212;5.660;2023-07-29T04:05:08;8.15;;;3.30;;
52494;SDS011;38405;53.212;5.660;2023-07-29T04:07:34;8.73;;;2.88;;
52494;SDS011;38405;53.212;5.660;2023-07-29T04:10:00;7.40;;;3.00;;
52494;SDS011;38405;53.212;5.660;2023-07-29T04:12:26;7.82;;;3.00;;
52494;SDS011;38405;53.212;5.660;2023-07-29T04:14:52;6.88;;;2.75;;
52494;SDS011;38405;53.212;5.660;2023-07-29T04:17:18;7.03;;;2.83;;
52494;SDS011;38405;53.212;5.660;2023-07-29T04:19:43;6.18;;;3.17;;
52494;SDS011;38405;53.212;5.660;2023-07-29T04:22:09;8.25;;;3.13;;
52494;SDS011;38405;53.212;5.660;2023-07-29T04:24:35;8.27;;;2.95;;
52494;SDS011;38405;53.212;5.660;2023-07-29T04:27:00;5.70;;;3.00;;
52494;SDS011;38405;53.212;5.660;2023-07-29T04:29:26;7.75;;;2.95;;
52494;SDS011;38405;53.212;5.660;2023-07-29T04:31:54;8.98;;;2.90;;
52494;SDS011;38405;53.212;5.660;2023-07-29T04:34:20;7.32;;;3.30;;
52494;SDS011;38405;53.212;5.660;2023-07-29T04:36:47;8.13;;;2.70;;
52494;SDS011;38405;53.212;5.660;2023-07-29T04:39:13;8.00;;;2.97;;
52494;SDS011;38405;53.212;5.660;2023-07-29T04:41:38;6.22;;;2.63;;
52494;SDS011;38405;53.212;5.660;2023-07-29T04:44:04;10.40;;;3.40;;
52494;SDS011;38405;53.212;5.660;2023-07-29T04:46:30;5.45;;;2.88;;
52494;SDS011;38405;53.212;5.660;2023-07-29T04:48:56;11.48;;;3.20;;
52494;SDS011;38405;53.212;5.660;2023-07-29T04:51:21;6.45;;;3.05;;
52494;SDS011;38405;53.212;5.660;2023-07-29T04:53:48;10.18;;;3.70;;
52494;SDS011;38405;53.212;5.660;2023-07-29T04:56:13;8.50;;;2.80;;
52494;SDS011;38405;53.212;5.660;2023-07-29T04:58:39;8.18;;;3.08;;
52494;SDS011;38405;53.212;5.660;2023-07-29T05:01:04;9.20;;;2.90;;
52494;SDS011;38405;53.212;5.660;2023-07-29T05:03:30;6.70;;;3.00;;
52494;SDS011;38405;53.212;5.660;2023-07-29T05:05:57;8.73;;;2.60;;
52494;SDS011;38405;53.212;5.660;2023-07-29T05:08:24;6.47;;;3.20;;
52494;SDS011;38405;53.212;5.660;2023-07-29T05:10:53;10.68;;;3.53;;
52494;SDS011;38405;53.212;5.660;2023-07-29T05:13:19;11.23;;;2.90;;
52494;SDS011;38405;53.212;5.660;2023-07-29T05:15:47;10.45;;;3.17;;
52494;SDS011;38405;53.212;5.660;2023-07-29T05:18:13;9.85;;;3.20;;
52494;SDS011;38405;53.212;5.660;2023-07-29T05:20:40;6.85;;;3.13;;
52494;SDS011;38405;53.212;5.660;2023-07-29T05:23:05;4.55;;;2.42;;
52494;SDS011;38405;53.212;5.660;2023-07-29T05:25:31;9.52;;;2.88;;
52494;SDS011;38405;53.212;5.660;2023-07-29T05:27:57;13.13;;;3.70;;
52494;SDS011;38405;53.212;5.660;2023-07-29T05:30:23;6.88;;;3.28;;
52494;SDS011;38405;53.212;5.660;2023-07-29T05:32:48;10.25;;;4.00;;
52494;SDS011;38405;53.212;5.660;2023-07-29T05:35:14;10.30;;;3.83;;
52494;SDS011;38405;53.212;5.660;2023-07-29T05:37:40;9.65;;;3.28;;
52494;SDS011;38405;53.212;5.660;2023-07-29T05:40:06;8.80;;;3.10;;
52494;SDS011;38405;53.212;5.660;2023-07-29T05:42:34;9.07;;;3.15;;
52494;SDS011;38405;53.212;5.660;2023-07-29T05:45:00;7.05;;;3.40;;
52494;SDS011;38405;53.212;5.660;2023-07-29T05:47:25;10.48;;;3.83;;
52494;SDS011;38405;53.212;5.660;2023-07-29T05:49:52;9.75;;;3.58;;
52494;SDS011;38405;53.212;5.660;2023-07-29T05:52:17;12.07;;;3.60;;
52494;SDS011;38405;53.212;5.660;2023-07-29T05:54:43;9.00;;;3.22;;
52494;SDS011;38405;53.212;5.660;2023-07-29T05:57:10;10.45;;;3.83;;
52494;SDS011;38405;53.212;5.660;2023-07-29T05:59:38;8.18;;;3.20;;
52494;SDS011;38405;53.212;5.660;2023-07-29T06:02:04;11.90;;;3.90;;
52494;SDS011;38405;53.212;5.660;2023-07-29T06:04:31;9.25;;;3.85;;
52494;SDS011;38405;53.212;5.660;2023-07-29T06:06:56;9.57;;;3.17;;
52494;SDS011;38405;53.212;5.660;2023-07-29T06:09:22;10.95;;;3.80;;
52494;SDS011;38405;53.212;5.660;2023-07-29T06:11:48;11.00;;;3.65;;
52494;SDS011;38405;53.212;5.660;2023-07-29T06:14:14;14.43;;;3.80;;
52494;SDS011;38405;53.212;5.660;2023-07-29T06:16:40;8.00;;;3.20;;
52494;SDS011;38405;53.212;5.660;2023-07-29T06:19:05;9.95;;;3.20;;
52494;SDS011;38405;53.212;5.660;2023-07-29T06:21:33;8.52;;;3.53;;
52494;SDS011;38405;53.212;5.660;2023-07-29T06:23:59;7.53;;;3.15;;
52494;SDS011;38405;53.212;5.660;2023-07-29T06:26:25;8.50;;;3.20;;
52494;SDS011;38405;53.212;5.660;2023-07-29T06:28:51;8.07;;;3.25;;
52494;SDS011;38405;53.212;5.660;2023-07-29T06:31:16;9.10;;;3.28;;
52494;SDS011;38405;53.212;5.660;2023-07-29T06:33:42;8.77;;;3.35;;
52494;SDS011;38405;53.212;5.660;2023-07-29T06:36:08;8.32;;;3.25;;
52494;SDS011;38405;53.212;5.660;2023-07-29T06:38:33;7.22;;;3.40;;
52494;SDS011;38405;53.212;5.660;2023-07-29T06:40:59;12.02;;;3.17;;
52494;SDS011;38405;53.212;5.660;2023-07-29T06:43:25;5.30;;;2.72;;
52494;SDS011;38405;53.212;5.660;2023-07-29T06:45:50;6.95;;;3.00;;
52494;SDS011;38405;53.212;5.660;2023-07-29T06:48:16;8.80;;;3.40;;
52494;SDS011;38405;53.212;5.660;2023-07-29T06:50:43;7.68;;;2.53;;
52494;SDS011;38405;53.212;5.660;2023-07-29T06:53:09;10.60;;;3.25;;
52494;SDS011;38405;53.212;5.660;2023-07-29T06:55:35;9.80;;;2.70;;
52494;SDS011;38405;53.212;5.660;2023-07-29T06:58:01;11.82;;;2.88;;
52494;SDS011;38405;53.212;5.660;2023-07-29T07:00:27;7.70;;;2.63;;
52494;SDS011;38405;53.212;5.660;2023-07-29T07:02:52;9.00;;;2.92;;
52494;SDS011;38405;53.212;5.660;2023-07-29T07:05:18;11.75;;;2.20;;
52494;SDS011;38405;53.212;5.660;2023-07-29T07:07:44;7.53;;;2.65;;
52494;SDS011;38405;53.212;5.660;2023-07-29T07:10:09;8.95;;;2.78;;
52494;SDS011;38405;53.212;5.660;2023-07-29T07:12:35;10.70;;;3.35;;
52494;SDS011;38405;53.212;5.660;2023-07-29T07:15:01;9.00;;;2.63;;
52494;SDS011;38405;53.212;5.660;2023-07-29T07:17:29;6.88;;;2.28;;
52494;SDS011;38405;53.212;5.660;2023-07-29T07:19:55;7.57;;;2.38;;
52494;SDS011;38405;53.212;5.660;2023-07-29T07:22:20;9.68;;;2.63;;
52494;SDS011;38405;53.212;5.660;2023-07-29T07:24:46;7.82;;;2.53;;
52494;SDS011;38405;53.212;5.660;2023-07-29T07:27:12;9.48;;;2.50;;
52494;SDS011;38405;53.212;5.660;2023-07-29T07:29:37;11.25;;;2.78;;
52494;SDS011;38405;53.212;5.660;2023-07-29T07:32:03;9.18;;;2.85;;
52494;SDS011;38405;53.212;5.660;2023-07-29T07:34:29;9.27;;;2.50;;
52494;SDS011;38405;53.212;5.660;2023-07-29T07:36:54;10.02;;;2.35;;
52494;SDS011;38405;53.212;5.660;2023-07-29T07:39:20;6.03;;;1.98;;
52494;SDS011;38405;53.212;5.660;2023-07-29T07:41:46;7.97;;;2.30;;
52494;SDS011;38405;53.212;5.660;2023-07-29T07:44:12;7.18;;;2.00;;
52494;SDS011;38405;53.212;5.660;2023-07-29T07:46:40;10.70;;;3.15;;
52494;SDS011;38405;53.212;5.660;2023-07-29T07:49:06;9.95;;;2.63;;
52494;SDS011;38405;53.212;5.660;2023-07-29T07:51:32;6.05;;;1.83;;
52494;SDS011;38405;53.212;5.660;2023-07-29T07:53:58;7.18;;;1.77;;
52494;SDS011;38405;53.212;5.660;2023-07-29T07:56:23;6.25;;;2.00;;
52494;SDS011;38405;53.212;5.660;2023-07-29T07:58:49;6.35;;;2.10;;
52494;SDS011;38405;53.212;5.660;2023-07-29T08:01:15;6.82;;;1.90;;
52494;SDS011;38405;53.212;5.660;2023-07-29T08:03:40;4.18;;;1.65;;
52494;SDS011;38405;53.212;5.660;2023-07-29T08:06:06;7.13;;;2.08;;
52494;SDS011;38405;53.212;5.660;2023-07-29T08:08:32;3.47;;;1.58;;
52494;SDS011;38405;53.212;5.660;2023-07-29T08:10:57;3.83;;;1.73;;
52494;SDS011;38405;53.212;5.660;2023-07-29T08:13:23;5.05;;;1.95;;
52494;SDS011;38405;53.212;5.660;2023-07-29T08:15:50;7.57;;;1.95;;
52494;SDS011;38405;53.212;5.660;2023-07-29T08:18:16;3.33;;;1.65;;
52494;SDS011;38405;53.212;5.660;2023-07-29T08:20:52;5.35;;;1.80;;
52494;SDS011;38405;53.212;5.660;2023-07-29T08:23:23;4.03;;;1.85;;
52494;SDS011;38405;53.212;5.660;2023-07-29T08:25:55;4.57;;;1.63;;
52494;SDS011;38405;53.212;5.660;2023-07-29T08:28:26;6.72;;;1.88;;
52494;SDS011;38405;53.212;5.660;2023-07-29T08:30:56;6.05;;;1.75;;
52494;SDS011;38405;53.212;5.660;2023-07-29T08:33:22;7.50;;;2.47;;
52494;SDS011;38405;53.212;5.660;2023-07-29T08:35:48;4.40;;;1.73;;
52494;SDS011;38405;53.212;5.660;2023-07-29T08:38:14;6.15;;;1.90;;
52494;SDS011;38405;53.212;5.660;2023-07-29T08:40:42;5.25;;;1.98;;
52494;SDS011;38405;53.212;5.660;2023-07-29T08:43:10;7.65;;;2.05;;
52494;SDS011;38405;53.212;5.660;2023-07-29T08:45:39;6.57;;;1.88;;
52494;SDS011;38405;53.212;5.660;2023-07-29T08:48:08;7.97;;;2.25;;
52494;SDS011;38405;53.212;5.660;2023-07-29T08:50:36;2.97;;;1.40;;
52494;SDS011;38405;53.212;5.660;2023-07-29T08:53:05;3.75;;;1.52;;
52494;SDS011;38405;53.212;5.660;2023-07-29T08:55:32;3.63;;;1.75;;
52494;SDS011;38405;53.212;5.660;2023-07-29T08:57:58;8.38;;;2.05;;
52494;SDS011;38405;53.212;5.660;2023-07-29T09:00:25;6.00;;;2.08;;
52494;SDS011;38405;53.212;5.660;2023-07-29T09:02:52;7.00;;;1.88;;
52494;SDS011;38405;53.212;5.660;2023-07-29T09:05:18;6.07;;;1.75;;
52494;SDS011;38405;53.212;5.660;2023-07-29T09:07:45;5.80;;;1.95;;
52494;SDS011;38405;53.212;5.660;2023-07-29T09:10:13;5.47;;;1.98;;
52494;SDS011;38405;53.212;5.660;2023-07-29T09:12:39;5.95;;;2.03;;
52494;SDS011;38405;53.212;5.660;2023-07-29T09:15:05;5.97;;;1.70;;
52494;SDS011;38405;53.212;5.660;2023-07-29T09:17:32;4.03;;;1.60;;
52494;SDS011;38405;53.212;5.660;2023-07-29T09:19:58;3.40;;;1.48;;
52494;SDS011;38405;53.212;5.660;2023-07-29T09:22:24;3.15;;;1.58;;
52494;SDS011;38405;53.212;5.660;2023-07-29T09:24:52;4.78;;;1.70;;
52494;SDS011;38405;53.212;5.660;2023-07-29T09:29:51;3.05;;;1.50;;
52494;SDS011;38405;53.212;5.660;2023-07-29T09:32:18;3.45;;;1.45;;
52494;SDS011;38405;53.212;5.660;2023-07-29T09:34:45;5.43;;;1.70;;
52494;SDS011;38405;53.212;5.660;2023-07-29T09:37:20;5.40;;;1.70;;
52494;SDS011;38405;53.212;5.660;2023-07-29T09:39:47;2.78;;;1.40;;
52494;SDS011;38405;53.212;5.660;2023-07-29T09:42:17;3.75;;;1.52;;
52494;SDS011;38405;53.212;5.660;2023-07-29T09:44:44;5.45;;;2.05;;
52494;SDS011;38405;53.212;5.660;2023-07-29T09:47:17;3.90;;;1.50;;
52494;SDS011;38405;53.212;5.660;2023-07-29T09:49:47;4.93;;;1.63;;
52494;SDS011;38405;53.212;5.660;2023-07-29T09:52:20;2.78;;;1.08;;
52494;SDS011;38405;53.212;5.660;2023-07-29T09:54:47;4.03;;;1.45;;
52494;SDS011;38405;53.212;5.660;2023-07-29T09:57:14;3.83;;;1.65;;
52494;SDS011;38405;53.212;5.660;2023-07-29T09:59:41;5.78;;;2.00;;
52494;SDS011;38405;53.212;5.660;2023-07-29T10:02:09;6.80;;;1.60;;
52494;SDS011;38405;53.212;5.660;2023-07-29T10:04:40;7.88;;;1.73;;
52494;SDS011;38405;53.212;5.660;2023-07-29T10:07:07;3.75;;;1.67;;
52494;SDS011;38405;53.212;5.660;2023-07-29T10:09:34;2.05;;;1.15;;
52494;SDS011;38405;53.212;5.660;2023-07-29T10:12:00;4.63;;;1.70;;
52494;SDS011;38405;53.212;5.660;2023-07-29T10:14:27;3.50;;;1.20;;
52494;SDS011;38405;53.212;5.660;2023-07-29T10:16:55;3.13;;;1.27;;
52494;SDS011;38405;53.212;5.660;2023-07-29T10:19:23;2.42;;;1.20;;
52494;SDS011;38405;53.212;5.660;2023-07-29T10:21:51;2.85;;;1.20;;
52494;SDS011;38405;53.212;5.660;2023-07-29T10:24:22;3.58;;;1.60;;
52494;SDS011;38405;53.212;5.660;2023-07-29T10:26:54;3.22;;;1.45;;
52494;SDS011;38405;53.212;5.660;2023-07-29T10:29:23;2.95;;;1.63;;
52494;SDS011;38405;53.212;5.660;2023-07-29T10:31:50;4.65;;;1.70;;
52494;SDS011;38405;53.212;5.660;2023-07-29T10:34:18;5.45;;;2.05;;
52494;SDS011;38405;53.212;5.660;2023-07-29T10:36:46;3.70;;;1.35;;
52494;SDS011;38405;53.212;5.660;2023-07-29T10:39:13;4.38;;;1.98;;
52494;SDS011;38405;53.212;5.660;2023-07-29T10:49:44;3.40;;;0.95;;
52494;SDS011;38405;53.212;5.660;2023-07-29T10:52:14;2.97;;;1.30;;
52494;SDS011;38405;53.212;5.660;2023-07-29T10:54:45;3.00;;;0.90;;
52494;SDS011;38405;53.212;5.660;2023-07-29T10:57:13;6.38;;;1.23;;
52494;SDS011;38405;53.212;5.660;2023-07-29T11:02:22;2.28;;;1.60;;
52494;SDS011;38405;53.212;5.660;2023-07-29T11:04:57;2.92;;;1.20;;
52494;SDS011;38405;53.212;5.660;2023-07-29T11:07:27;3.40;;;1.00;;
52494;SDS011;38405;53.212;5.660;2023-07-29T11:10:11;5.25;;;1.50;;
52494;SDS011;38405;53.212;5.660;2023-07-29T11:18:09;3.03;;;1.33;;
52494;SDS011;38405;53.212;5.660;2023-07-29T11:20:29;7.75;;;1.48;;
52494;SDS011;38405;53.212;5.660;2023-07-29T11:22:56;5.85;;;1.73;;
52494;SDS011;38405;53.212;5.660;2023-07-29T11:25:23;5.75;;;1.30;;
52494;SDS011;38405;53.212;5.660;2023-07-29T11:27:58;8.57;;;1.40;;
52494;SDS011;38405;53.212;5.660;2023-07-29T11:30:25;4.28;;;1.40;;
52494;SDS011;38405;53.212;5.660;2023-07-29T11:32:54;2.83;;;1.00;;
52494;SDS011;38405;53.212;5.660;2023-07-29T11:35:21;4.82;;;1.65;;
52494;SDS011;38405;53.212;5.660;2023-07-29T11:37:47;2.88;;;1.30;;
52494;SDS011;38405;53.212;5.660;2023-07-29T11:40:15;2.45;;;1.00;;
52494;SDS011;38405;53.212;5.660;2023-07-29T11:42:41;2.92;;;1.38;;
52494;SDS011;38405;53.212;5.660;2023-07-29T11:45:07;6.00;;;1.60;;
52494;SDS011;38405;53.212;5.660;2023-07-29T11:47:34;3.97;;;1.30;;
52494;SDS011;38405;53.212;5.660;2023-07-29T11:50:04;6.35;;;1.38;;
52494;SDS011;38405;53.212;5.660;2023-07-29T11:52:35;6.72;;;1.75;;
52494;SDS011;38405;53.212;5.660;2023-07-29T11:55:03;3.83;;;1.20;;
52494;SDS011;38405;53.212;5.660;2023-07-29T11:57:33;2.75;;;1.30;;
52494;SDS011;38405;53.212;5.660;2023-07-29T12:00:05;4.20;;;1.70;;
52494;SDS011;38405;53.212;5.660;2023-07-29T12:02:36;8.50;;;1.80;;
52494;SDS011;38405;53.212;5.660;2023-07-29T12:05:07;6.38;;;1.50;;
52494;SDS011;38405;53.212;5.660;2023-07-29T12:07:34;4.32;;;1.75;;
52494;SDS011;38405;53.212;5.660;2023-07-29T12:10:01;5.22;;;1.67;;
52494;SDS011;38405;53.212;5.660;2023-07-29T12:12:28;5.38;;;1.65;;
52494;SDS011;38405;53.212;5.660;2023-07-29T12:14:54;5.93;;;1.70;;
52494;SDS011;38405;53.212;5.660;2023-07-29T12:17:20;7.03;;;1.83;;
52494;SDS011;38405;53.212;5.660;2023-07-29T12:19:46;9.05;;;2.47;;
52494;SDS011;38405;53.212;5.660;2023-07-29T12:22:12;6.15;;;1.83;;
52494;SDS011;38405;53.212;5.660;2023-07-29T12:24:42;6.75;;;1.80;;
52494;SDS011;38405;53.212;5.660;2023-07-29T12:27:11;4.45;;;1.83;;
52494;SDS011;38405;53.212;5.660;2023-07-29T12:29:41;6.45;;;2.05;;
52494;SDS011;38405;53.212;5.660;2023-07-29T12:32:08;5.07;;;1.80;;
52494;SDS011;38405;53.212;5.660;2023-07-29T12:34:35;6.60;;;2.10;;
52494;SDS011;38405;53.212;5.660;2023-07-29T12:37:03;6.85;;;2.00;;
52494;SDS011;38405;53.212;5.660;2023-07-29T12:39:30;5.43;;;1.77;;
52494;SDS011;38405;53.212;5.660;2023-07-29T12:41:59;5.88;;;1.70;;
52494;SDS011;38405;53.212;5.660;2023-07-29T12:44:28;6.18;;;2.05;;
52494;SDS011;38405;53.212;5.660;2023-07-29T12:47:00;5.60;;;2.00;;
52494;SDS011;38405;53.212;5.660;2023-07-29T12:49:27;6.03;;;1.65;;
52494;SDS011;38405;53.212;5.660;2023-07-29T12:51:54;5.47;;;1.95;;
52494;SDS011;38405;53.212;5.660;2023-07-29T12:54:23;4.72;;;2.00;;
52494;SDS011;38405;53.212;5.660;2023-07-29T12:56:48;4.75;;;1.80;;
52494;SDS011;38405;53.212;5.660;2023-07-29T12:59:15;6.55;;;1.85;;
52494;SDS011;38405;53.212;5.660;2023-07-29T13:01:40;5.88;;;1.83;;
52494;SDS011;38405;53.212;5.660;2023-07-29T13:04:06;3.75;;;1.65;;
52494;SDS011;38405;53.212;5.660;2023-07-29T13:06:32;4.72;;;1.63;;
52494;SDS011;38405;53.212;5.660;2023-07-29T13:08:57;7.03;;;2.00;;
52494;SDS011;38405;53.212;5.660;2023-07-29T13:11:23;3.78;;;1.70;;
52494;SDS011;38405;53.212;5.660;2023-07-29T13:13:49;6.05;;;2.13;;
52494;SDS011;38405;53.212;5.660;2023-07-29T13:16:15;5.93;;;1.90;;
52494;SDS011;38405;53.212;5.660;2023-07-29T13:18:41;6.82;;;1.73;;
52494;SDS011;38405;53.212;5.660;2023-07-29T13:21:08;5.43;;;1.92;;
52494;SDS011;38405;53.212;5.660;2023-07-29T13:23:34;3.65;;;1.60;;
52494;SDS011;38405;53.212;5.660;2023-07-29T13:26:00;6.72;;;2.08;;
52494;SDS011;38405;53.212;5.660;2023-07-29T13:28:28;3.92;;;1.95;;
52494;SDS011;38405;53.212;5.660;2023-07-29T13:30:54;9.57;;;1.98;;
52494;SDS011;38405;53.212;5.660;2023-07-29T13:33:20;8.38;;;2.35;;
52494;SDS011;38405;53.212;5.660;2023-07-29T13:35:46;5.00;;;1.83;;
52494;SDS011;38405;53.212;5.660;2023-07-29T13:38:11;4.22;;;2.03;;
52494;SDS011;38405;53.212;5.660;2023-07-29T13:40:37;6.82;;;2.33;;
52494;SDS011;38405;53.212;5.660;2023-07-29T13:43:03;8.35;;;2.50;;
52494;SDS011;38405;53.212;5.660;2023-07-29T13:45:28;5.35;;;2.05;;
52494;SDS011;38405;53.212;5.660;2023-07-29T13:47:54;4.95;;;2.25;;
52494;SDS011;38405;53.212;5.660;2023-07-29T13:50:19;10.90;;;2.35;;
52494;SDS011;38405;53.212;5.660;2023-07-29T13:52:45;5.15;;;1.90;;
52494;SDS011;38405;53.212;5.660;2023-07-29T13:55:11;4.95;;;1.88;;
52494;SDS011;38405;53.212;5.660;2023-07-29T13:57:37;8.82;;;2.33;;
52494;SDS011;38405;53.212;5.660;2023-07-29T14:00:05;5.65;;;2.10;;
52494;SDS011;38405;53.212;5.660;2023-07-29T14:02:31;6.63;;;2.03;;
52494;SDS011;38405;53.212;5.660;2023-07-29T14:04:57;8.75;;;2.13;;
52494;SDS011;38405;53.212;5.660;2023-07-29T14:07:23;5.40;;;2.08;;
52494;SDS011;38405;53.212;5.660;2023-07-29T14:09:48;4.47;;;1.67;;
52494;SDS011;38405;53.212;5.660;2023-07-29T14:12:14;4.13;;;1.65;;
52494;SDS011;38405;53.212;5.660;2023-07-29T14:14:43;3.95;;;1.70;;
52494;SDS011;38405;53.212;5.660;2023-07-29T14:17:09;3.95;;;1.60;;
52494;SDS011;38405;53.212;5.660;2023-07-29T14:19:35;6.07;;;1.50;;
52494;SDS011;38405;53.212;5.660;2023-07-29T14:22:01;6.45;;;1.60;;
52494;SDS011;38405;53.212;5.660;2023-07-29T14:24:27;3.60;;;1.70;;
52494;SDS011;38405;53.212;5.660;2023-07-29T14:26:53;7.85;;;1.92;;
52494;SDS011;38405;53.212;5.660;2023-07-29T14:29:19;3.05;;;1.33;;
52494;SDS011;38405;53.212;5.660;2023-07-29T14:31:44;5.03;;;1.60;;
52494;SDS011;38405;53.212;5.660;2023-07-29T14:34:10;5.05;;;1.73;;
52494;SDS011;38405;53.212;5.660;2023-07-29T14:36:36;4.22;;;1.70;;
52494;SDS011;38405;53.212;5.660;2023-07-29T14:39:02;3.47;;;1.90;;
52494;SDS011;38405;53.212;5.660;2023-07-29T14:41:28;5.45;;;1.90;;
52494;SDS011;38405;53.212;5.660;2023-07-29T14:43:54;3.13;;;1.60;;
52494;SDS011;38405;53.212;5.660;2023-07-29T14:46:19;5.07;;;1.70;;
52494;SDS011;38405;53.212;5.660;2023-07-29T14:48:45;6.05;;;1.70;;
52494;SDS011;38405;53.212;5.660;2023-07-29T14:51:12;2.95;;;1.50;;
52494;SDS011;38405;53.212;5.660;2023-07-29T14:53:38;3.33;;;1.50;;
52494;SDS011;38405;53.212;5.660;2023-07-29T14:56:03;6.03;;;1.90;;
52494;SDS011;38405;53.212;5.660;2023-07-29T14:58:29;4.88;;;1.35;;
52494;SDS011;38405;53.212;5.660;2023-07-29T15:00:55;7.70;;;1.77;;
52494;SDS011;38405;53.212;5.660;2023-07-29T15:03:21;5.90;;;1.65;;
52494;SDS011;38405;53.212;5.660;2023-07-29T15:05:47;3.95;;;1.23;;